sensor_id;sensor_type;location;lat;lon;timestamp;pressure;altitude;pressure_sealevel;temperature;humidity
31337;BME280;22846;42.654;23.314;2023-03-15T00:01:00;93512.47;;;24.02;47.06
31337;BME280;22846;42.654;23.314;2023-03-15T00:03:26;93525.63;;;24.03;47.14
31337;BME280;22846;42.654;23.314;2023-03-15T00:05:51;93504.28;;;24.02;47.22
31337;BME280;22846;42.654;23.314;2023-03-15T00:08:17;93513.19;;;24.02;47.30
31337;BME280;22846;42.654;23.314;2023-03-15T00:10:45;93503.03;;;24.03;47.13
31337;BME280;22846;42.654;23.314;2023-03-15T00:13:15;93507.75;;;24.02;47.39
31337;BME280;22846;42.654;23.314;2023-03-15T00:15:48;93511.69;;;24.01;46.98
31337;BME280;22846;42.654;23.314;2023-03-15T00:18:15;93511.84;;;23.98;46.93
31337;BME280;22846;42.654;23.314;2023-03-15T00:20:41;93506.22;;;24.01;47.32
31337;BME280;22846;42.654;23.314;2023-03-15T00:23:07;93511.69;;;24.01;47.10
31337;BME280;22846;42.654;23.314;2023-03-15T00:25:33;93515.94;;;24.02;47.24
31337;BME280;22846;42.654;23.314;2023-03-15T00:27:59;93503.50;;;24.01;46.71
31337;BME280;22846;42.654;23.314;2023-03-15T00:30:24;93505.00;;;24.02;47.02
31337;BME280;22846;42.654;23.314;2023-03-15T00:32:51;93509.72;;;24.02;47.15
31337;BME280;22846;42.654;23.314;2023-03-15T00:35:18;93501.25;;;24.00;47.18
31337;BME280;22846;42.654;23.314;2023-03-15T00:37:44;93488.22;;;23.95;47.09
31337;BME280;22846;42.654;23.314;2023-03-15T00:40:10;93494.28;;;23.99;46.99
31337;BME280;22846;42.654;23.314;2023-03-15T00:42:36;93497.75;;;23.99;46.79
31337;BME280;22846;42.654;23.314;2023-03-15T00:45:02;93498.50;;;24.00;46.76
31337;BME280;22846;42.654;23.314;2023-03-15T00:47:27;93492.44;;;23.96;46.81
31337;BME280;22846;42.654;23.314;2023-03-15T00:49:53;93496.22;;;23.98;47.18
31337;BME280;22846;42.654;23.314;2023-03-15T00:52:18;93488.81;;;23.99;46.77
31337;BME280;22846;42.654;23.314;2023-03-15T00:54:50;93485.78;;;23.97;47.22
31337;BME280;22846;42.654;23.314;2023-03-15T00:57:16;93482.31;;;23.96;47.19
31337;BME280;22846;42.654;23.314;2023-03-15T00:59:41;93478.38;;;23.97;47.23
31337;BME280;22846;42.654;23.314;2023-03-15T01:02:09;93474.28;;;23.93;47.37
31337;BME280;22846;42.654;23.314;2023-03-15T01:04:35;93478.81;;;23.96;47.22
31337;BME280;22846;42.654;23.314;2023-03-15T01:07:02;93462.44;;;23.96;46.99
31337;BME280;22846;42.654;23.314;2023-03-15T01:09:28;93463.94;;;23.97;47.23
31337;BME280;22846;42.654;23.314;2023-03-15T01:11:56;93462.13;;;23.94;47.03
31337;BME280;22846;42.654;23.314;2023-03-15T01:14:21;93461.88;;;23.92;46.82
31337;BME280;22846;42.654;23.314;2023-03-15T01:16:47;93456.97;;;23.96;46.84
31337;BME280;22846;42.654;23.314;2023-03-15T01:19:12;93460.47;;;23.96;47.26
31337;BME280;22846;42.654;23.314;2023-03-15T01:21:38;93452.75;;;23.95;47.23
31337;BME280;22846;42.654;23.314;2023-03-15T01:24:04;93453.94;;;23.94;47.29
31337;BME280;22846;42.654;23.314;2023-03-15T01:26:29;93450.47;;;23.93;47.31
31337;BME280;22846;42.654;23.314;2023-03-15T01:28:55;93432.75;;;23.89;47.17
31337;BME280;22846;42.654;23.314;2023-03-15T01:31:26;93445.03;;;23.93;47.01
31337;BME280;22846;42.654;23.314;2023-03-15T01:33:52;93447.00;;;23.93;47.00
31337;BME280;22846;42.654;23.314;2023-03-15T01:36:18;93438.34;;;23.94;46.87
31337;BME280;22846;42.654;23.314;2023-03-15T01:38:44;93439.56;;;23.93;47.06
31337;BME280;22846;42.654;23.314;2023-03-15T01:41:11;93434.09;;;23.93;47.24
31337;BME280;22846;42.654;23.314;2023-03-15T01:43:37;93438.81;;;23.93;46.99
31337;BME280;22846;42.654;23.314;2023-03-15T01:46:23;93435.31;;;23.92;47.14
31337;BME280;22846;42.654;23.314;2023-03-15T01:56:31;93398.38;;;23.83;47.46
31337;BME280;22846;42.654;23.314;2023-03-15T01:58:59;93410.94;;;23.89;47.39
31337;BME280;22846;42.654;23.314;2023-03-15T02:01:26;93413.97;;;23.91;47.08
31337;BME280;22846;42.654;23.314;2023-03-15T02:03:56;93413.19;;;23.91;47.13
31337;BME280;22846;42.654;23.314;2023-03-15T02:06:25;93405.31;;;23.92;47.12
31337;BME280;22846;42.654;23.314;2023-03-15T02:08:58;93400.31;;;23.91;47.48
31337;BME280;22846;42.654;23.314;2023-03-15T02:11:26;93390.31;;;23.88;47.30
31337;BME280;22846;42.654;23.314;2023-03-15T02:13:53;93396.38;;;23.92;47.15
31337;BME280;22846;42.654;23.314;2023-03-15T02:16:20;93394.09;;;23.91;47.43
31337;BME280;22846;42.654;23.314;2023-03-15T02:18:46;93363.75;;;23.74;47.05
31337;BME280;22846;42.654;23.314;2023-03-15T02:24:37;93386.56;;;23.86;47.47
31337;BME280;22846;42.654;23.314;2023-03-15T02:27:08;93358.59;;;23.76;47.60
31337;BME280;22846;42.654;23.314;2023-03-15T02:29:33;93372.00;;;23.89;46.98
31337;BME280;22846;42.654;23.314;2023-03-15T02:32:00;93377.47;;;23.89;47.25
31337;BME280;22846;42.654;23.314;2023-03-15T02:34:28;93371.56;;;23.81;47.12
31337;BME280;22846;42.654;23.314;2023-03-15T02:36:54;93373.97;;;23.88;47.48
31337;BME280;22846;42.654;23.314;2023-03-15T02:39:21;93372.16;;;23.85;47.43
31337;BME280;22846;42.654;23.314;2023-03-15T02:41:55;93381.41;;;23.88;47.21
31337;BME280;22846;42.654;23.314;2023-03-15T02:46:51;93367.00;;;23.87;47.43
31337;BME280;22846;42.654;23.314;2023-03-15T02:49:20;93350.84;;;23.75;47.62
31337;BME280;22846;42.654;23.314;2023-03-15T02:51:47;93370.50;;;23.88;47.06
31337;BME280;22846;42.654;23.314;2023-03-15T02:54:12;93364.13;;;23.82;47.00
31337;BME280;22846;42.654;23.314;2023-03-15T02:56:38;93366.69;;;23.85;47.43
31337;BME280;22846;42.654;23.314;2023-03-15T02:59:03;93348.41;;;23.77;47.19
31337;BME280;22846;42.654;23.314;2023-03-15T03:01:29;93357.63;;;23.79;47.14
31337;BME280;22846;42.654;23.314;2023-03-15T03:03:55;93363.50;;;23.87;47.21
31337;BME280;22846;42.654;23.314;2023-03-15T03:06:21;93360.00;;;23.86;47.20
31337;BME280;22846;42.654;23.314;2023-03-15T03:08:46;93362.00;;;23.86;47.60
31337;BME280;22846;42.654;23.314;2023-03-15T03:11:15;93344.88;;;23.85;47.13
31337;BME280;22846;42.654;23.314;2023-03-15T03:13:41;93345.63;;;23.86;47.19
31337;BME280;22846;42.654;23.314;2023-03-15T03:16:07;93345.63;;;23.86;47.31
31337;BME280;22846;42.654;23.314;2023-03-15T03:18:32;93340.19;;;23.86;47.60
31337;BME280;22846;42.654;23.314;2023-03-15T03:21:01;93340.19;;;23.86;47.34
31337;BME280;22846;42.654;23.314;2023-03-15T03:23:28;93351.09;;;23.86;47.25
31337;BME280;22846;42.654;23.314;2023-03-15T03:25:55;93341.41;;;23.85;47.27
31337;BME280;22846;42.654;23.314;2023-03-15T03:28:22;93342.13;;;23.85;47.27
31337;BME280;22846;42.654;23.314;2023-03-15T03:30:49;93336.69;;;23.85;47.54
31337;BME280;22846;42.654;23.314;2023-03-15T03:33:15;93328.22;;;23.83;47.28
31337;BME280;22846;42.654;23.314;2023-03-15T03:35:40;93332.47;;;23.84;47.59
31337;BME280;22846;42.654;23.314;2023-03-15T03:38:10;93328.66;;;23.82;47.24
31337;BME280;22846;42.654;23.314;2023-03-15T03:40:37;93326.53;;;23.86;47.34
31337;BME280;22846;42.654;23.314;2023-03-15T03:43:02;93319.56;;;23.85;47.15
31337;BME280;22846;42.654;23.314;2023-03-15T03:45:28;93319.56;;;23.85;47.32
31337;BME280;22846;42.654;23.314;2023-03-15T03:47:53;93322.28;;;23.85;47.48
31337;BME280;22846;42.654;23.314;2023-03-15T03:50:18;93319.28;;;23.83;47.07
31337;BME280;22846;42.654;23.314;2023-03-15T03:52:44;93321.56;;;23.84;47.19
31337;BME280;22846;42.654;23.314;2023-03-15T03:55:10;93322.78;;;23.83;47.56
31337;BME280;22846;42.654;23.314;2023-03-15T03:57:38;93311.84;;;23.83;47.23
31337;BME280;22846;42.654;23.314;2023-03-15T04:00:05;93315.03;;;23.82;47.57
31337;BME280;22846;42.654;23.314;2023-03-15T04:02:30;93302.34;;;23.79;47.49
31337;BME280;22846;42.654;23.314;2023-03-15T04:04:56;93305.63;;;23.83;47.49
31337;BME280;22846;42.654;23.314;2023-03-15T04:07:21;93295.75;;;23.85;47.07
31337;BME280;22846;42.654;23.314;2023-03-15T04:09:46;93291.19;;;23.91;46.50
31337;BME280;22846;42.654;23.314;2023-03-15T04:12:12;93298.84;;;24.01;46.56
31337;BME280;22846;42.654;23.314;2023-03-15T04:14:37;93278.22;;;24.00;46.80
31337;BME280;22846;42.654;23.314;2023-03-15T04:17:03;93297.00;;;24.22;46.25
31337;BME280;22846;42.654;23.314;2023-03-15T04:19:29;93291.75;;;24.33;45.99
31337;BME280;22846;42.654;23.314;2023-03-15T04:21:55;93288.38;;;24.38;45.92
31337;BME280;22846;42.654;23.314;2023-03-15T04:24:20;93298.78;;;24.48;46.18
31337;BME280;22846;42.654;23.314;2023-03-15T04:26:46;93283.25;;;24.54;45.73
31337;BME280;22846;42.654;23.314;2023-03-15T04:29:11;93294.38;;;24.65;45.10
31337;BME280;22846;42.654;23.314;2023-03-15T04:31:38;93291.75;;;24.71;45.60
31337;BME280;22846;42.654;23.314;2023-03-15T04:34:04;93289.38;;;24.78;45.57
31337;BME280;22846;42.654;23.314;2023-03-15T04:36:30;93287.50;;;24.84;45.41
31337;BME280;22846;42.654;23.314;2023-03-15T04:38:55;93280.50;;;24.97;45.28
31337;BME280;22846;42.654;23.314;2023-03-15T04:41:29;93278.72;;;25.09;45.09
31337;BME280;22846;42.654;23.314;2023-03-15T04:43:54;93286.16;;;25.23;44.74
31337;BME280;22846;42.654;23.314;2023-03-15T04:46:20;93285.75;;;25.30;45.44
31337;BME280;22846;42.654;23.314;2023-03-15T04:48:45;93292.63;;;25.40;45.47
31337;BME280;22846;42.654;23.314;2023-03-15T04:51:10;93292.34;;;25.38;45.84
31337;BME280;22846;42.654;23.314;2023-03-15T04:53:36;93281.41;;;25.38;46.45
31337;BME280;22846;42.654;23.314;2023-03-15T04:56:03;93280.75;;;25.43;46.39
31337;BME280;22846;42.654;23.314;2023-03-15T04:58:28;93278.47;;;25.41;46.09
31337;BME280;22846;42.654;23.314;2023-03-15T05:00:54;93269.72;;;25.37;45.89
31337;BME280;22846;42.654;23.314;2023-03-15T05:03:19;93279.44;;;25.38;45.75
31337;BME280;22846;42.654;23.314;2023-03-15T05:05:45;93284.63;;;25.36;45.91
31337;BME280;22846;42.654;23.314;2023-03-15T05:08:10;93280.09;;;25.33;45.83
31337;BME280;22846;42.654;23.314;2023-03-15T05:10:36;93300.28;;;25.36;45.32
31337;BME280;22846;42.654;23.314;2023-03-15T05:13:01;93298.78;;;25.35;45.71
31337;BME280;22846;42.654;23.314;2023-03-15T05:15:26;93288.56;;;25.35;45.77
31337;BME280;22846;42.654;23.314;2023-03-15T05:17:52;93291.09;;;25.39;45.64
31337;BME280;22846;42.654;23.314;2023-03-15T05:20:21;93291.09;;;25.39;45.67
31337;BME280;22846;42.654;23.314;2023-03-15T05:22:47;93283.69;;;25.39;45.73
31337;BME280;22846;42.654;23.314;2023-03-15T05:25:13;93275.94;;;25.38;44.97
31337;BME280;22846;42.654;23.314;2023-03-15T05:27:39;93279.72;;;25.40;45.35
31337;BME280;22846;42.654;23.314;2023-03-15T05:30:09;93279.88;;;25.37;45.21
31337;BME280;22846;42.654;23.314;2023-03-15T05:32:35;93278.94;;;25.40;45.42
31337;BME280;22846;42.654;23.314;2023-03-15T05:35:05;93275.09;;;25.32;45.15
31337;BME280;22846;42.654;23.314;2023-03-15T05:37:30;93274.81;;;25.30;37.02
31337;BME280;22846;42.654;23.314;2023-03-15T05:39:57;93276.44;;;25.22;36.50
31337;BME280;22846;42.654;23.314;2023-03-15T05:42:23;93272.59;;;25.14;37.64
31337;BME280;22846;42.654;23.314;2023-03-15T05:44:52;93271.44;;;25.06;40.21
31337;BME280;22846;42.654;23.314;2023-03-15T05:47:18;93279.56;;;25.00;41.26
31337;BME280;22846;42.654;23.314;2023-03-15T05:49:44;93269.50;;;24.92;42.30
31337;BME280;22846;42.654;23.314;2023-03-15T05:52:09;93267.88;;;24.85;42.91
31337;BME280;22846;42.654;23.314;2023-03-15T05:54:35;93267.06;;;24.79;42.78
31337;BME280;22846;42.654;23.314;2023-03-15T05:57:00;93276.19;;;24.77;42.86
31337;BME280;22846;42.654;23.314;2023-03-15T05:59:25;93273.34;;;24.71;42.67
31337;BME280;22846;42.654;23.314;2023-03-15T06:01:51;93267.50;;;24.64;42.75
31337;BME280;22846;42.654;23.314;2023-03-15T06:04:17;93280.72;;;24.65;43.08
31337;BME280;22846;42.654;23.314;2023-03-15T06:06:42;93258.09;;;24.50;42.80
31337;BME280;22846;42.654;23.314;2023-03-15T06:09:07;93275.16;;;24.60;43.49
31337;BME280;22846;42.654;23.314;2023-03-15T06:11:33;93272.91;;;24.58;43.35
31337;BME280;22846;42.654;23.314;2023-03-15T06:13:58;93273.34;;;24.57;43.22
31337;BME280;22846;42.654;23.314;2023-03-15T06:16:24;93279.59;;;24.57;43.62
31337;BME280;22846;42.654;23.314;2023-03-15T06:18:49;93248.91;;;24.39;43.40
31337;BME280;22846;42.654;23.314;2023-03-15T06:21:15;93272.31;;;24.54;43.09
31337;BME280;22846;42.654;23.314;2023-03-15T06:23:41;93285.03;;;24.57;43.75
31337;BME280;22846;42.654;23.314;2023-03-15T06:26:06;93285.50;;;24.56;43.29
31337;BME280;22846;42.654;23.314;2023-03-15T06:28:32;93285.50;;;24.56;43.21
31337;BME280;22846;42.654;23.314;2023-03-15T06:30:57;93272.78;;;24.53;43.14
31337;BME280;22846;42.654;23.314;2023-03-15T06:33:22;93260.66;;;24.54;44.19
31337;BME280;22846;42.654;23.314;2023-03-15T06:35:48;93251.41;;;24.51;44.30
31337;BME280;22846;42.654;23.314;2023-03-15T06:38:14;93266.28;;;24.50;43.64
31337;BME280;22846;42.654;23.314;2023-03-15T06:40:39;93257.81;;;24.48;43.74
31337;BME280;22846;42.654;23.314;2023-03-15T06:43:05;93274.03;;;24.52;43.71
31337;BME280;22846;42.654;23.314;2023-03-15T06:45:32;93271.28;;;24.52;43.36
31337;BME280;22846;42.654;23.314;2023-03-15T06:47:57;93254.13;;;24.51;43.37
31337;BME280;22846;42.654;23.314;2023-03-15T06:50:23;93263.38;;;24.54;43.80
31337;BME280;22846;42.654;23.314;2023-03-15T06:52:48;93273.53;;;24.53;43.68
31337;BME280;22846;42.654;23.314;2023-03-15T06:55:14;93271.84;;;24.56;43.42
31337;BME280;22846;42.654;23.314;2023-03-15T06:57:43;93266.38;;;24.56;43.49
31337;BME280;22846;42.654;23.314;2023-03-15T07:00:09;93252.63;;;24.50;43.44
31337;BME280;22846;42.654;23.314;2023-03-15T07:02:35;93250.75;;;24.56;43.70
31337;BME280;22846;42.654;23.314;2023-03-15T07:05:05;93262.13;;;24.55;43.02
31337;BME280;22846;42.654;23.314;2023-03-15T07:07:31;93258.66;;;24.54;42.96
31337;BME280;22846;42.654;23.314;2023-03-15T07:09:56;93248.97;;;24.53;43.50
31337;BME280;22846;42.654;23.314;2023-03-15T07:12:22;93249.44;;;24.52;43.91
31337;BME280;22846;42.654;23.314;2023-03-15T07:14:47;93256.22;;;24.56;43.59
31337;BME280;22846;42.654;23.314;2023-03-15T07:17:13;93248.31;;;24.58;43.97
31337;BME280;22846;42.654;23.314;2023-03-15T07:19:39;93246.81;;;24.57;43.74
31337;BME280;22846;42.654;23.314;2023-03-15T07:22:04;93256.03;;;24.60;43.73
31337;BME280;22846;42.654;23.314;2023-03-15T07:24:30;93263.00;;;24.61;43.68
31337;BME280;22846;42.654;23.314;2023-03-15T07:26:55;93260.72;;;24.59;43.89
31337;BME280;22846;42.654;23.314;2023-03-15T07:29:24;93261.31;;;24.63;44.14
31337;BME280;22846;42.654;23.314;2023-03-15T07:31:50;93248.88;;;24.62;43.89
31337;BME280;22846;42.654;23.314;2023-03-15T07:34:16;93242.47;;;24.65;43.67
31337;BME280;22846;42.654;23.314;2023-03-15T07:36:42;93239.16;;;24.61;43.72
31337;BME280;22846;42.654;23.314;2023-03-15T07:39:07;93246.91;;;24.63;43.75
31337;BME280;22846;42.654;23.314;2023-03-15T07:41:32;93245.19;;;24.65;43.99
31337;BME280;22846;42.654;23.314;2023-03-15T07:43:58;93253.50;;;24.71;43.97
31337;BME280;22846;42.654;23.314;2023-03-15T07:46:23;93242.09;;;24.72;43.88
31337;BME280;22846;42.654;23.314;2023-03-15T07:48:49;93236.91;;;24.74;43.99
31337;BME280;22846;42.654;23.314;2023-03-15T07:51:14;93237.84;;;24.71;43.83
31337;BME280;22846;42.654;23.314;2023-03-15T07:53:40;93222.19;;;24.72;43.62
31337;BME280;22846;42.654;23.314;2023-03-15T07:56:05;93237.16;;;24.76;43.62
31337;BME280;22846;42.654;23.314;2023-03-15T07:58:31;93227.13;;;24.68;43.80
31337;BME280;22846;42.654;23.314;2023-03-15T08:00:56;93242.47;;;24.79;43.80
31337;BME280;22846;42.654;23.314;2023-03-15T08:03:23;93235.94;;;24.77;43.60
31337;BME280;22846;42.654;23.314;2023-03-15T08:05:49;93242.91;;;24.78;43.57
31337;BME280;22846;42.654;23.314;2023-03-15T08:08:15;93240.66;;;24.77;43.48
31337;BME280;22846;42.654;23.314;2023-03-15T08:10:41;93232.75;;;24.78;43.40
31337;BME280;22846;42.654;23.314;2023-03-15T08:13:07;93243.69;;;24.78;43.43
31337;BME280;22846;42.654;23.314;2023-03-15T08:15:32;93227.28;;;24.78;43.62
31337;BME280;22846;42.654;23.314;2023-03-15T08:17:58;93223.06;;;24.77;43.26
31337;BME280;22846;42.654;23.314;2023-03-15T08:20:24;93219.84;;;24.79;43.67
31337;BME280;22846;42.654;23.314;2023-03-15T08:22:49;93222.28;;;24.77;43.44
31337;BME280;22846;42.654;23.314;2023-03-15T08:25:19;93218.34;;;24.78;43.18
31337;BME280;22846;42.654;23.314;2023-03-15T08:27:45;93221.06;;;24.78;43.25
31337;BME280;22846;42.654;23.314;2023-03-15T08:30:12;93213.63;;;24.78;43.36
31337;BME280;22846;42.654;23.314;2023-03-15T08:32:43;93205.81;;;24.72;43.63
31337;BME280;22846;42.654;23.314;2023-03-15T08:35:09;93213.63;;;24.78;43.38
31337;BME280;22846;42.654;23.314;2023-03-15T08:37:37;93216.81;;;24.77;43.30
31337;BME280;22846;42.654;23.314;2023-03-15T08:40:02;93214.84;;;24.77;43.29
31337;BME280;22846;42.654;23.314;2023-03-15T08:42:37;93216.09;;;24.77;43.33
31337;BME280;22846;42.654;23.314;2023-03-15T08:45:04;93200.44;;;24.77;43.21
31337;BME280;22846;42.654;23.314;2023-03-15T08:47:31;93193.75;;;24.78;43.12
31337;BME280;22846;42.654;23.314;2023-03-15T08:50:06;93199.97;;;24.78;43.16
31337;BME280;22846;42.654;23.314;2023-03-15T08:52:32;93204.38;;;24.76;42.98
31337;BME280;22846;42.654;23.314;2023-03-15T08:54:58;93205.88;;;24.77;43.10
31337;BME280;22846;42.654;23.314;2023-03-15T08:57:24;93216.81;;;24.77;43.25
31337;BME280;22846;42.654;23.314;2023-03-15T08:59:54;93216.81;;;24.77;43.48
31337;BME280;22846;42.654;23.314;2023-03-15T09:02:19;93219.56;;;24.77;43.22
31337;BME280;22846;42.654;23.314;2023-03-15T09:04:46;93220.78;;;24.76;43.08
31337;BME280;22846;42.654;23.314;2023-03-15T09:07:12;93218.03;;;24.76;43.28
31337;BME280;22846;42.654;23.314;2023-03-15T09:09:37;93219.28;;;24.75;43.47
31337;BME280;22846;42.654;23.314;2023-03-15T09:12:03;93209.31;;;24.72;43.10
31337;BME280;22846;42.654;23.314;2023-03-15T09:14:28;93226.25;;;24.76;42.97
31337;BME280;22846;42.654;23.314;2023-03-15T09:16:53;93210.53;;;24.71;43.31
31337;BME280;22846;42.654;23.314;2023-03-15T09:19:19;93217.69;;;24.69;43.37
31337;BME280;22846;42.654;23.314;2023-03-15T09:21:45;93219.94;;;24.70;42.99
31337;BME280;22846;42.654;23.314;2023-03-15T09:24:11;93217.97;;;24.71;43.03
31337;BME280;22846;42.654;23.314;2023-03-15T09:26:37;93222.69;;;24.70;43.39
31337;BME280;22846;42.654;23.314;2023-03-15T09:29:02;93213.66;;;24.64;43.09
31337;BME280;22846;42.654;23.314;2023-03-15T09:31:28;93209.69;;;24.65;43.07
31337;BME280;22846;42.654;23.314;2023-03-15T09:33:54;93207.22;;;24.67;42.85
31337;BME280;22846;42.654;23.314;2023-03-15T09:36:20;93210.44;;;24.66;42.94
31337;BME280;22846;42.654;23.314;2023-03-15T09:38:46;93205.25;;;24.68;42.49
31337;BME280;22846;42.654;23.314;2023-03-15T09:41:51;93187.47;;;24.58;42.92
31337;BME280;22846;42.654;23.314;2023-03-15T09:48:07;93194.53;;;24.64;42.73
31337;BME280;22846;42.654;23.314;2023-03-15T09:50:20;93190.28;;;24.63;42.98
31337;BME280;22846;42.654;23.314;2023-03-15T09:52:54;93188.78;;;24.62;42.81
31337;BME280;22846;42.654;23.314;2023-03-15T09:55:27;93188.03;;;24.62;42.42
31337;BME280;22846;42.654;23.314;2023-03-15T10:00:46;93187.25;;;24.61;42.70
31337;BME280;22846;42.654;23.314;2023-03-15T10:03:58;93185.00;;;24.60;42.58
31337;BME280;22846;42.654;23.314;2023-03-15T10:06:11;93195.16;;;24.59;42.58
31337;BME280;22846;42.654;23.314;2023-03-15T10:08:40;93190.88;;;24.53;42.56
31337;BME280;22846;42.654;23.314;2023-03-15T10:11:34;93192.19;;;24.57;42.84
31337;BME280;22846;42.654;23.314;2023-03-15T10:16:47;93181.91;;;24.52;42.13
31337;BME280;22846;42.654;23.314;2023-03-15T10:27:21;93188.88;;;24.53;42.62
31337;BME280;22846;42.654;23.314;2023-03-15T10:29:52;93185.13;;;24.51;42.17
31337;BME280;22846;42.654;23.314;2023-03-15T10:32:21;93166.00;;;24.51;42.64
31337;BME280;22846;42.654;23.314;2023-03-15T10:34:51;93140.09;;;24.32;42.57
31337;BME280;22846;42.654;23.314;2023-03-15T10:37:17;93177.41;;;24.49;42.95
31337;BME280;22846;42.654;23.314;2023-03-15T10:39:47;93184.09;;;24.48;42.79
31337;BME280;22846;42.654;23.314;2023-03-15T10:42:30;93178.50;;;24.43;42.61
31337;BME280;22846;42.654;23.314;2023-03-15T10:44:57;93181.81;;;24.47;42.46
31337;BME280;22846;42.654;23.314;2023-03-15T10:47:24;93176.53;;;24.43;42.46
31337;BME280;22846;42.654;23.314;2023-03-15T10:49:58;93170.31;;;24.43;41.88
31337;BME280;22846;42.654;23.314;2023-03-15T10:52:27;93173.91;;;24.49;42.05
31337;BME280;22846;42.654;23.314;2023-03-15T10:54:56;93183.50;;;24.44;42.29
31337;BME280;22846;42.654;23.314;2023-03-15T10:57:26;93188.84;;;24.39;41.93
31337;BME280;22846;42.654;23.314;2023-03-15T11:00:17;93172.22;;;24.37;42.03
31337;BME280;22846;42.654;23.314;2023-03-15T11:02:50;93173.25;;;24.39;42.17
31337;BME280;22846;42.654;23.314;2023-03-15T11:05:17;93169.72;;;24.39;41.98
31337;BME280;22846;42.654;23.314;2023-03-15T11:07:54;93172.94;;;24.37;42.32
31337;BME280;22846;42.654;23.314;2023-03-15T11:10:22;93164.75;;;24.37;42.16
31337;BME280;22846;42.654;23.314;2023-03-15T11:12:49;93169.00;;;24.38;41.97
31337;BME280;22846;42.654;23.314;2023-03-15T11:15:17;93170.69;;;24.36;42.20
31337;BME280;22846;42.654;23.314;2023-03-15T11:17:45;93142.44;;;24.24;42.21
31337;BME280;22846;42.654;23.314;2023-03-15T11:20:50;93159.19;;;24.32;42.18
31337;BME280;22846;42.654;23.314;2023-03-15T11:23:23;93161.66;;;24.30;42.09
31337;BME280;22846;42.654;23.314;2023-03-15T11:25:50;93149.16;;;24.23;42.05
31337;BME280;22846;42.654;23.314;2023-03-15T11:28:19;93170.91;;;24.32;41.81
31337;BME280;22846;42.654;23.314;2023-03-15T11:30:46;93172.13;;;24.31;42.03
31337;BME280;22846;42.654;23.314;2023-03-15T11:35:55;93159.09;;;24.26;41.69
31337;BME280;22846;42.654;23.314;2023-03-15T11:38:30;93150.72;;;24.30;42.34
31337;BME280;22846;42.654;23.314;2023-03-15T11:41:02;93132.69;;;24.18;42.25
31337;BME280;22846;42.654;23.314;2023-03-15T11:43:51;93149.22;;;24.29;42.08
31337;BME280;22846;42.654;23.314;2023-03-15T11:46:27;93152.91;;;24.26;41.82
31337;BME280;22846;42.654;23.314;2023-03-15T11:49:02;93161.66;;;24.30;42.01
31337;BME280;22846;42.654;23.314;2023-03-15T11:51:32;93152.91;;;24.26;41.78
31337;BME280;22846;42.654;23.314;2023-03-15T11:54:06;93153.19;;;24.28;42.19
31337;BME280;22846;42.654;23.314;2023-03-15T11:59:10;93146.41;;;24.23;41.67
31337;BME280;22846;42.654;23.314;2023-03-15T12:01:41;93144.91;;;24.22;41.73
31337;BME280;22846;42.654;23.314;2023-03-15T12:06:58;93141.69;;;24.24;42.01
31337;BME280;22846;42.654;23.314;2023-03-15T12:11:58;93130.03;;;24.23;41.96
31337;BME280;22846;42.654;23.314;2023-03-15T12:14:28;93132.47;;;24.21;41.76
31337;BME280;22846;42.654;23.314;2023-03-15T12:20:04;93122.59;;;24.24;42.04
31337;BME280;22846;42.654;23.314;2023-03-15T12:22:34;93118.34;;;24.23;41.87
31337;BME280;22846;42.654;23.314;2023-03-15T12:25:15;93116.84;;;24.22;41.81
31337;BME280;22846;42.654;23.314;2023-03-15T12:27:52;93124.28;;;24.21;41.96
31337;BME280;22846;42.654;23.314;2023-03-15T12:30:24;93133.69;;;24.20;42.26
31337;BME280;22846;42.654;23.314;2023-03-15T12:32:55;93122.00;;;24.20;41.78
31337;BME280;22846;42.654;23.314;2023-03-15T12:35:23;93116.56;;;24.20;42.17
31337;BME280;22846;42.654;23.314;2023-03-15T12:37:51;93102.84;;;24.14;42.29
31337;BME280;22846;42.654;23.314;2023-03-15T12:53:33;93109.78;;;24.15;41.71
31337;BME280;22846;42.654;23.314;2023-03-15T12:58:52;93110.25;;;24.14;41.98
31337;BME280;22846;42.654;23.314;2023-03-15T13:01:18;93092.97;;;24.02;41.84
31337;BME280;22846;42.654;23.314;2023-03-15T13:03:43;93114.97;;;24.13;41.71
31337;BME280;22846;42.654;23.314;2023-03-15T13:11:20;93094.09;;;24.10;41.84
31337;BME280;22846;42.654;23.314;2023-03-15T13:17:04;93097.56;;;24.11;41.80
31337;BME280;22846;42.654;23.314;2023-03-15T13:19:39;93086.28;;;24.03;42.23
31337;BME280;22846;42.654;23.314;2023-03-15T13:22:23;93095.31;;;24.09;42.14
31337;BME280;22846;42.654;23.314;2023-03-15T13:27:51;93104.72;;;24.08;42.37
31337;BME280;22846;42.654;23.314;2023-03-15T13:30:37;93109.44;;;24.08;41.80
31337;BME280;22846;42.654;23.314;2023-03-15T13:35:57;93105.66;;;24.05;42.30
31337;BME280;22846;42.654;23.314;2023-03-15T13:38:34;93115.38;;;24.06;41.86
31337;BME280;22846;42.654;23.314;2023-03-15T13:41:13;93107.44;;;24.08;41.79
31337;BME280;22846;42.654;23.314;2023-03-15T13:43:39;93107.63;;;24.05;42.21
31337;BME280;22846;42.654;23.314;2023-03-15T13:46:06;93103.69;;;24.06;41.76
31337;BME280;22846;42.654;23.314;2023-03-15T13:48:34;93102.66;;;24.03;42.24
31337;BME280;22846;42.654;23.314;2023-03-15T13:51:15;93102.47;;;24.07;42.19
31337;BME280;22846;42.654;23.314;2023-03-15T13:53:42;93100.66;;;24.04;42.42
31337;BME280;22846;42.654;23.314;2023-03-15T13:56:08;93109.13;;;24.06;42.28
31337;BME280;22846;42.654;23.314;2023-03-15T13:58:36;93119.03;;;24.03;42.18
31337;BME280;22846;42.654;23.314;2023-03-15T14:01:05;93116.00;;;24.01;42.12
31337;BME280;22846;42.654;23.314;2023-03-15T14:03:32;93112.06;;;24.02;41.89
31337;BME280;22846;42.654;23.314;2023-03-15T14:05:58;93121.56;;;24.07;42.01
31337;BME280;22846;42.654;23.314;2023-03-15T14:15:58;93109.63;;;24.04;41.96